Time;durP1;ratioP1;P1;durP2;ratioP2;P2;SDS_P1;SDS_P2;PMS_P1;PMS_P2;Temp;Humidity;BMP_temperature;BMP_pressure;BME280_temperature;BME280_humidity;BME280_pressure;Samples;Min_cycle;Max_cycle;Signal;HPM_P1;HPM_P2
2023/05/07 00:01:12;;;;;;;26.60;24.20;;;13.20;99.90;;;;;;5229342;28;20021;-73
2023/05/07 00:03:43;;;;;;;26.73;24.27;;;13.20;99.90;;;;;;5229407;28;20032;-74
2023/05/07 00:06:14;;;;;;;26.30;23.67;;;13.20;99.90;;;;;;5229300;28;20029;-73
2023/05/07 00:08:45;;;;;;;27.33;24.67;;;13.20;99.90;;;;;;5211331;28;20094;-74
2023/05/07 00:11:16;;;;;;;35.90;32.47;;;13.00;99.90;;;;;;5229206;28;20108;-74
2023/05/07 00:13:48;;;;;;;35.30;31.60;;;12.90;99.90;;;;;;5229175;28;20052;-74
2023/05/07 00:16:18;;;;;;;32.85;29.48;;;13.00;99.90;;;;;;5229014;28;20033;-73
2023/05/07 00:18:50;;;;;;;32.63;29.60;;;13.10;99.90;;;;;;5229316;28;20542;-74
2023/05/07 00:21:21;;;;;;;29.25;26.48;;;13.20;99.90;;;;;;5229283;28;20029;-74
2023/05/07 00:23:55;;;;;;;27.75;25.10;;;13.00;99.90;;;;;;5229150;28;20486;-74
2023/05/07 00:26:26;;;;;;;31.90;29.00;;;13.10;99.90;;;;;;5228891;28;20036;-73
2023/05/07 00:28:57;;;;;;;30.15;27.35;;;13.10;99.90;;;;;;5228837;28;20078;-74
2023/05/07 00:31:27;;;;;;;31.42;28.83;;;13.10;99.90;;;;;;5228841;28;20472;-73
2023/05/07 00:33:58;;;;;;;31.20;28.50;;;13.00;99.90;;;;;;5228835;28;20033;-73
2023/05/07 00:36:30;;;;;;;29.88;27.27;;;13.20;99.90;;;;;;5228815;28;20021;-74
2023/05/07 00:39:03;;;;;;;31.95;29.25;;;13.20;99.90;;;;;;5228641;28;20733;-74
2023/05/07 00:41:33;;;;;;;31.48;28.85;;;13.10;99.90;;;;;;5228902;28;20071;-73
2023/05/07 00:44:04;;;;;;;31.85;29.10;;;13.20;99.90;;;;;;5228499;28;20485;-74
2023/05/07 00:46:35;;;;;;;31.08;28.38;;;13.20;99.90;;;;;;5228486;28;20028;-75
2023/05/07 00:49:07;;;;;;;32.25;29.15;;;13.30;99.90;;;;;;5228560;28;20107;-73
2023/05/07 00:51:38;;;;;;;29.83;27.08;;;13.00;99.90;;;;;;5228401;28;20113;-73
2023/05/07 00:54:09;;;;;;;29.27;26.80;;;13.20;99.90;;;;;;5228525;28;20162;-72
2023/05/07 00:56:40;;;;;;;28.85;26.05;;;13.30;99.90;;;;;;5228371;28;20025;-74
2023/05/07 00:59:11;;;;;;;27.23;24.83;;;13.10;99.90;;;;;;5226972;28;20032;-73
2023/05/07 01:01:42;;;;;;;27.83;25.38;;;13.10;99.90;;;;;;5228462;28;20754;-73
2023/05/07 01:04:12;;;;;;;30.60;27.98;;;13.20;99.90;;;;;;5228573;28;20040;-74
2023/05/07 01:06:45;;;;;;;30.40;27.55;;;12.90;99.90;;;;;;5228326;28;20025;-74
2023/05/07 01:09:16;;;;;;;28.02;25.52;;;13.00;99.90;;;;;;5228097;28;20139;-74
2023/05/07 01:11:49;;;;;;;30.05;27.33;;;13.10;99.90;;;;;;5228047;28;20115;-74
2023/05/07 01:14:20;;;;;;;31.20;28.30;;;12.90;99.90;;;;;;5227985;28;20056;-74
2023/05/07 01:16:51;;;;;;;30.98;28.38;;;12.90;99.90;;;;;;5227952;28;20029;-73
2023/05/07 01:19:22;;;;;;;27.52;25.30;;;13.20;99.90;;;;;;5227856;28;20033;-74
2023/05/07 01:22:01;;;;;;;29.92;27.25;;;13.20;99.90;;;;;;5228012;28;20075;-74
2023/05/07 01:24:33;;;;;;;29.15;26.77;;;13.30;99.90;;;;;;5227992;28;20033;-73
2023/05/07 01:27:04;;;;;;;28.00;25.38;;;13.20;99.90;;;;;;5227653;28;20043;-74
2023/05/07 01:29:35;;;;;;;28.88;26.48;;;13.10;99.90;;;;;;5227772;28;20473;-74
2023/05/07 01:32:07;;;;;;;28.45;25.65;;;13.00;99.90;;;;;;5227913;28;20044;-74
2023/05/07 01:34:38;;;;;;;28.08;25.58;;;13.20;99.90;;;;;;5228107;28;20029;-73
2023/05/07 01:37:09;;;;;;;28.80;26.05;;;13.30;99.90;;;;;;5227909;28;20029;-74
2023/05/07 01:39:43;;;;;;;27.77;25.40;;;13.30;99.90;;;;;;5227547;28;20051;-73
2023/05/07 01:42:13;;;;;;;28.00;25.70;;;13.40;99.90;;;;;;5227511;28;20033;-73
2023/05/07 01:44:45;;;;;;;30.85;28.30;;;13.40;99.90;;;;;;5227499;28;20032;-74
2023/05/07 01:47:16;;;;;;;29.95;27.00;;;13.40;99.90;;;;;;5227373;28;20156;-73
2023/05/07 01:49:47;;;;;;;29.75;25.63;;;13.40;99.90;;;;;;5227532;28;20025;-74
2023/05/07 01:52:18;;;;;;;29.90;27.15;;;13.40;99.90;;;;;;5227536;28;20029;-73
2023/05/07 01:54:49;;;;;;;31.60;28.83;;;13.40;99.90;;;;;;5227416;28;20013;-74
2023/05/07 01:57:20;;;;;;;28.17;25.88;;;13.40;99.90;;;;;;5209454;28;20033;-74
2023/05/07 01:59:51;;;;;;;27.92;25.23;;;13.40;99.90;;;;;;5227266;28;20032;-74
2023/05/07 02:02:22;;;;;;;29.95;27.65;;;13.40;99.90;;;;;;5227134;28;20037;-74
2023/05/07 02:04:53;;;;;;;28.95;26.38;;;13.40;99.90;;;;;;5227313;28;20024;-73
2023/05/07 02:07:23;;;;;;;30.38;27.92;;;13.30;99.90;;;;;;5227029;28;20483;-73
2023/05/07 02:09:55;;;;;;;31.65;28.92;;;13.40;99.90;;;;;;5226681;28;20036;-74
2023/05/07 02:12:26;;;;;;;30.60;28.00;;;13.30;99.90;;;;;;5226810;28;20156;-73
2023/05/07 02:14:56;;;;;;;29.40;27.02;;;13.40;99.90;;;;;;5226946;28;20441;-74
2023/05/07 02:17:27;;;;;;;29.90;27.35;;;13.30;99.90;;;;;;5226739;28;20028;-74
2023/05/07 02:19:58;;;;;;;28.35;26.15;;;13.40;99.90;;;;;;5226839;28;20044;-74
2023/05/07 02:22:30;;;;;;;29.60;27.27;;;13.10;99.90;;;;;;5226821;28;20128;-74
2023/05/07 02:25:00;;;;;;;29.10;26.52;;;13.00;99.90;;;;;;5226688;28;20024;-73
2023/05/07 02:27:31;;;;;;;30.33;28.13;;;13.00;99.90;;;;;;5226681;28;20445;-73
2023/05/07 02:30:02;;;;;;;29.15;26.85;;;12.90;99.90;;;;;;5227036;28;20021;-73
2023/05/07 02:32:33;;;;;;;30.45;28.10;;;12.80;99.90;;;;;;5226678;28;20021;-73
2023/05/07 02:35:05;;;;;;;29.65;27.27;;;12.80;99.90;;;;;;5208785;28;20790;-74
2023/05/07 02:37:36;;;;;;;28.35;26.13;;;12.70;99.90;;;;;;5226482;28;20033;-73
2023/05/07 02:40:07;;;;;;;31.27;28.70;;;12.70;99.90;;;;;;5226412;28;20021;-74
2023/05/07 02:42:38;;;;;;;31.15;28.73;;;12.80;99.90;;;;;;5226366;28;20017;-73
2023/05/07 02:45:09;;;;;;;31.83;29.48;;;12.70;99.90;;;;;;5226232;28;20087;-73
2023/05/07 02:47:40;;;;;;;30.48;28.13;;;12.50;99.90;;;;;;5226252;28;20033;-74
2023/05/07 02:50:11;;;;;;;30.08;27.95;;;12.30;99.90;;;;;;5226347;28;20036;-75
2023/05/07 02:52:42;;;;;;;28.05;25.67;;;12.30;99.90;;;;;;5226458;28;20432;-74
2023/05/07 02:55:13;;;;;;;28.70;26.33;;;12.30;99.90;;;;;;5226248;28;20021;-73
2023/05/07 02:57:43;;;;;;;28.80;26.63;;;12.50;99.90;;;;;;5226727;28;20392;-74
2023/05/07 03:00:16;;;;;;;30.98;28.73;;;12.00;99.90;;;;;;5226084;28;20044;-74
2023/05/07 03:02:49;;;;;;;32.67;30.42;;;11.90;99.90;;;;;;5225995;28;20057;-74
2023/05/07 03:05:19;;;;;;;28.02;25.88;;;12.00;99.90;;;;;;5226159;28;20435;-74
2023/05/07 03:07:50;;;;;;;29.40;27.08;;;12.10;99.90;;;;;;5225766;28;20033;-74
2023/05/07 03:10:21;;;;;;;26.80;24.58;;;11.80;99.90;;;;;;5225743;28;20417;-74
2023/05/07 03:12:52;;;;;;;30.88;28.27;;;11.90;99.90;;;;;;5225609;28;20061;-74
2023/05/07 03:15:22;;;;;;;28.83;26.50;;;12.10;99.90;;;;;;5225963;28;20032;-74
2023/05/07 03:17:53;;;;;;;30.67;27.90;;;12.00;99.90;;;;;;5225797;28;20033;-74
2023/05/07 03:20:24;;;;;;;30.15;28.02;;;12.00;99.90;;;;;;5225817;28;20029;-75
2023/05/07 03:22:55;;;;;;;29.35;27.05;;;11.80;99.90;;;;;;5224778;28;20036;-74
2023/05/07 03:25:26;;;;;;;28.30;25.92;;;11.90;99.90;;;;;;5225777;28;20544;-74
2023/05/07 03:27:57;;;;;;;29.45;27.13;;;11.90;99.90;;;;;;5225717;28;20037;-73
2023/05/07 03:30:27;;;;;;;29.50;27.40;;;11.90;99.90;;;;;;5225795;28;20021;-74
2023/05/07 03:32:58;;;;;;;32.10;29.67;;;11.90;99.90;;;;;;5225857;28;20100;-73
2023/05/07 03:35:29;;;;;;;29.45;26.77;;;11.80;99.90;;;;;;5226043;28;20053;-74
2023/05/07 03:38:00;;;;;;;28.13;25.92;;;11.70;99.90;;;;;;5225979;28;20037;-74
2023/05/07 03:40:31;;;;;;;27.98;25.50;;;11.70;99.90;;;;;;5225701;28;20025;-73
2023/05/07 03:43:02;;;;;;;27.45;25.02;;;11.70;99.90;;;;;;5225597;28;20075;-74
2023/05/07 03:45:33;;;;;;;26.30;24.15;;;11.70;99.90;;;;;;5225742;28;20052;-73
2023/05/07 03:48:04;;;;;;;24.85;22.73;;;11.60;99.90;;;;;;5225370;28;20037;-74
2023/05/07 03:50:35;;;;;;;23.45;21.45;;;11.70;99.90;;;;;;5225423;28;20033;-74
2023/05/07 03:53:05;;;;;;;26.58;24.08;;;11.90;99.90;;;;;;5225653;28;20091;-74
2023/05/07 03:55:36;;;;;;;27.13;24.73;;;12.20;99.90;;;;;;5225797;28;20373;-74
2023/05/07 03:58:07;;;;;;;29.30;26.98;;;12.40;99.90;;;;;;5225605;28;20025;-74
2023/05/07 04:00:39;;;;;;;29.65;27.27;;;12.50;99.90;;;;;;5225747;28;20078;-74
2023/05/07 04:03:10;;;;;;;31.23;28.52;;;12.70;99.90;;;;;;5225624;28;20120;-74
2023/05/07 04:05:41;;;;;;;32.28;29.67;;;12.70;99.90;;;;;;5225529;28;20528;-74
2023/05/07 04:08:12;;;;;;;32.53;29.77;;;12.80;99.90;;;;;;5225180;28;20037;-74
2023/05/07 04:10:43;;;;;;;31.63;28.55;;;12.90;99.90;;;;;;5225466;28;20509;-75
2023/05/07 04:13:13;;;;;;;33.92;30.60;;;12.90;99.90;;;;;;5225007;28;20041;-73
2023/05/07 04:15:46;;;;;;;34.15;30.83;;;13.00;99.90;;;;;;5225452;28;20033;-74
2023/05/07 04:18:17;;;;;;;31.25;28.63;;;13.00;99.90;;;;;;5225351;28;20465;-74
2023/05/07 04:20:49;;;;;;;34.28;31.50;;;13.00;99.90;;;;;;5225351;28;20547;-74
2023/05/07 04:23:20;;;;;;;33.13;30.50;;;13.00;99.90;;;;;;5225515;28;20107;-74
2023/05/07 04:25:51;;;;;;;33.60;30.65;;;13.00;99.90;;;;;;5225215;28;20092;-74
2023/05/07 04:28:25;;;;;;;33.50;30.40;;;13.00;99.90;;;;;;5224892;28;20152;-73
2023/05/07 04:30:56;;;;;;;31.75;29.13;;;13.00;99.90;;;;;;5225275;28;20098;-74
2023/05/07 04:33:27;;;;;;;34.75;31.45;;;13.10;99.90;;;;;;5226267;28;20032;-74
2023/05/07 04:36:02;;;;;;;33.60;30.58;;;13.10;99.90;;;;;;5228955;28;20027;-74
2023/05/07 04:38:33;;;;;;;31.52;28.85;;;13.20;99.90;;;;;;5228899;28;20060;-74
2023/05/07 04:41:06;;;;;;;33.70;30.55;;;13.20;99.90;;;;;;5228813;28;20060;-74
2023/05/07 04:43:37;;;;;;;31.77;28.88;;;13.20;99.90;;;;;;5229141;28;20095;-73
2023/05/07 04:46:07;;;;;;;32.08;29.05;;;13.10;99.90;;;;;;5228956;28;20485;-74
2023/05/07 04:48:38;;;;;;;32.05;29.00;;;13.10;99.90;;;;;;5228491;28;20362;-73
2023/05/07 04:51:09;;;;;;;32.47;29.42;;;13.00;99.90;;;;;;5228604;28;20373;-74
2023/05/07 04:53:40;;;;;;;32.67;30.05;;;13.10;99.90;;;;;;5228650;28;20029;-74
2023/05/07 04:56:11;;;;;;;34.95;31.83;;;13.10;99.90;;;;;;5228378;28;20083;-74
2023/05/07 04:58:41;;;;;;;33.35;30.35;;;13.10;99.90;;;;;;5228542;28;20013;-74
2023/05/07 05:01:12;;;;;;;33.88;30.67;;;13.20;99.90;;;;;;5228331;28;20453;-74
2023/05/07 05:03:43;;;;;;;38.38;34.67;;;13.30;99.90;;;;;;5228349;28;20432;-74
2023/05/07 05:23:05;;;;;;;26.33;23.60;;;13.50;99.90;;;;;;5307077;27;20394;-73
2023/05/07 05:25:37;;;;;;;30.20;26.85;;;14.00;99.90;;;;;;5307074;27;20035;-72
2023/05/07 05:28:08;;;;;;;28.83;25.88;;;14.00;99.90;;;;;;5307026;27;20023;-74
2023/05/07 05:30:39;;;;;;;35.63;27.50;;;14.10;99.90;;;;;;5307144;27;20023;-73
2023/05/07 05:33:10;;;;;;;29.02;26.35;;;14.20;99.90;;;;;;5307282;28;20432;-73
2023/05/07 05:35:41;;;;;;;35.03;27.35;;;14.30;99.90;;;;;;5307667;27;20023;-73
2023/05/07 05:38:12;;;;;;;29.55;26.60;;;14.30;99.90;;;;;;5305804;28;20027;-73
2023/05/07 05:40:42;;;;;;;30.17;27.02;;;14.50;99.90;;;;;;5307097;27;20020;-73
2023/05/07 05:43:14;;;;;;;28.02;25.15;;;14.40;99.90;;;;;;5306759;27;20478;-74
2023/05/07 05:45:45;;;;;;;34.65;25.35;;;14.60;99.90;;;;;;5306641;27;20051;-73
2023/05/07 05:48:16;;;;;;;33.72;25.73;;;14.60;99.90;;;;;;5306516;27;20019;-73
2023/05/07 05:50:47;;;;;;;26.38;23.45;;;14.70;99.90;;;;;;5306314;27;20032;-73
2023/05/07 05:53:17;;;;;;;27.48;22.88;;;14.90;99.90;;;;;;5306403;27;20408;-72
2023/05/07 05:55:49;;;;;;;25.48;22.25;;;14.90;99.90;;;;;;5306653;27;20057;-73
2023/05/07 05:58:20;;;;;;;28.77;25.17;;;14.80;99.90;;;;;;5306288;27;20094;-74
2023/05/07 06:00:52;;;;;;;26.60;23.55;;;14.80;99.90;;;;;;5304969;28;20111;-74
2023/05/07 06:03:23;;;;;;;28.10;25.10;;;14.80;99.90;;;;;;5306307;27;20411;-73
2023/05/07 06:05:53;;;;;;;30.45;24.95;;;14.70;99.90;;;;;;5306202;27;20102;-73
2023/05/07 06:08:24;;;;;;;29.77;26.90;;;14.40;99.90;;;;;;5306042;27;20098;-74
2023/05/07 06:10:55;;;;;;;31.00;27.92;;;14.40;99.90;;;;;;5306051;27;20462;-74
2023/05/07 06:13:26;;;;;;;32.30;29.15;;;14.30;99.90;;;;;;5305780;27;20117;-73
2023/05/07 06:15:57;;;;;;;32.13;28.33;;;14.40;99.90;;;;;;5305816;27;20483;-74
2023/05/07 06:18:28;;;;;;;30.58;27.33;;;14.60;99.90;;;;;;5304629;27;20031;-72
2023/05/07 06:20:59;;;;;;;35.65;28.38;;;14.70;99.90;;;;;;5305371;27;20047;-72
2023/05/07 06:23:29;;;;;;;29.48;26.52;;;14.80;99.90;;;;;;5294627;27;20039;-73
2023/05/07 06:26:00;;;;;;;28.65;25.92;;;15.00;99.90;;;;;;5290292;28;20024;-73
2023/05/07 06:28:35;;;;;;;28.55;25.77;;;15.10;99.90;;;;;;5291440;28;20054;-73
2023/05/07 06:31:17;;;;;;;30.92;24.95;;;15.00;99.90;;;;;;5291347;28;20075;-74
2023/05/07 06:33:49;;;;;;;27.10;24.17;;;15.00;99.90;;;;;;5291361;28;20019;-73
2023/05/07 06:36:20;;;;;;;30.05;24.13;;;14.80;99.90;;;;;;5291289;28;20027;-74
2023/05/07 06:38:51;;;;;;;32.03;25.90;;;14.60;99.90;;;;;;5290264;28;20371;-74
2023/05/07 06:41:22;;;;;;;28.88;25.95;;;14.60;99.90;;;;;;5289915;28;20053;-74
2023/05/07 06:43:53;;;;;;;27.70;24.85;;;14.70;99.90;;;;;;5291148;28;20026;-73
2023/05/07 06:46:23;;;;;;;29.77;26.30;;;14.60;99.90;;;;;;5291135;28;20703;-74
2023/05/07 06:48:56;;;;;;;30.60;27.20;;;14.70;99.90;;;;;;5290926;28;20050;-74
2023/05/07 06:51:27;;;;;;;29.13;25.73;;;14.90;99.90;;;;;;5290997;28;20043;-73
2023/05/07 06:53:58;;;;;;;29.80;26.83;;;15.00;99.90;;;;;;5291279;28;20463;-72
2023/05/07 06:56:29;;;;;;;28.42;25.05;;;14.90;99.90;;;;;;5291062;27;20675;-72
2023/05/07 06:59:00;;;;;;;30.92;27.05;;;14.80;99.90;;;;;;5289531;28;20032;-74
2023/05/07 07:01:31;;;;;;;30.55;27.02;;;14.80;99.90;;;;;;5290924;28;20031;-73
2023/05/07 07:04:02;;;;;;;30.50;24.67;;;14.80;99.90;;;;;;5290946;28;20022;-73
2023/05/07 07:06:33;;;;;;;34.65;26.48;;;14.70;99.90;;;;;;5289685;28;20028;-73
2023/05/07 07:09:04;;;;;;;30.02;25.63;;;14.70;99.90;;;;;;5289551;28;20638;-74
2023/05/07 07:11:35;;;;;;;27.60;24.60;;;14.60;99.90;;;;;;5289239;28;20495;-73
2023/05/07 07:14:06;;;;;;;27.45;24.58;;;14.70;99.90;;;;;;5290757;28;20020;-73
2023/05/07 07:16:37;;;;;;;34.35;26.60;;;14.80;99.90;;;;;;5290858;28;20024;-74
2023/05/07 07:19:08;;;;;;;31.27;24.77;;;14.70;99.90;;;;;;5290786;28;20064;-74
2023/05/07 07:21:38;;;;;;;25.30;22.88;;;14.80;99.90;;;;;;5289044;28;20482;-73
2023/05/07 07:24:09;;;;;;;91.40;80.60;;;15.00;99.90;;;;;;5289988;28;20106;-74
2023/05/07 07:26:42;;;;;;;32.38;29.17;;;15.00;99.90;;;;;;5290386;28;20133;-74
2023/05/07 07:29:13;;;;;;;33.60;25.63;;;15.00;99.90;;;;;;5290370;28;20018;-74
2023/05/07 07:31:44;;;;;;;35.20;21.63;;;14.90;99.90;;;;;;5290181;28;20240;-73
2023/05/07 07:34:15;;;;;;;28.17;22.55;;;15.00;99.90;;;;;;5289220;28;20094;-74
2023/05/07 07:36:46;;;;;;;28.10;24.70;;;14.90;99.90;;;;;;5290594;28;20104;-73
2023/05/07 07:39:17;;;;;;;28.88;22.88;;;15.00;99.90;;;;;;5290409;28;20055;-72
2023/05/07 07:41:47;;;;;;;36.00;26.02;;;15.10;99.90;;;;;;5290257;28;20082;-74
2023/05/07 07:44:18;;;;;;;32.75;24.13;;;15.40;99.90;;;;;;5289672;28;20027;-74
2023/05/07 07:46:50;;;;;;;26.80;21.55;;;15.60;99.90;;;;;;5290018;28;20028;-74
2023/05/07 07:49:21;;;;;;;35.28;22.63;;;15.40;99.90;;;;;;5290013;28;20038;-73
2023/05/07 07:51:52;;;;;;;29.88;20.48;;;15.30;99.90;;;;;;5289764;28;20043;-73
2023/05/07 07:54:23;;;;;;;25.45;20.25;;;15.30;99.90;;;;;;5289873;28;20031;-74
2023/05/07 07:56:54;;;;;;;26.15;19.15;;;15.20;99.90;;;;;;5288493;28;20031;-74
2023/05/07 07:59:24;;;;;;;21.20;19.00;;;15.20;99.90;;;;;;5289643;28;20439;-74
2023/05/07 08:01:56;;;;;;;31.27;20.45;;;15.20;99.90;;;;;;5289798;28;20398;-74
2023/05/07 08:04:27;;;;;;;28.80;20.08;;;15.30;99.90;;;;;;5289671;28;20469;-72
2023/05/07 08:06:58;;;;;;;26.77;19.80;;;15.40;99.90;;;;;;5289513;28;20035;-74
2023/05/07 08:09:29;;;;;;;23.38;20.27;;;15.40;99.90;;;;;;5289558;28;20049;-74
2023/05/07 08:12:01;;;;;;;26.25;18.35;;;15.40;99.90;;;;;;5289619;28;20043;-74
2023/05/07 08:14:32;;;;;;;26.65;20.15;;;15.50;99.90;;;;;;5288166;28;20115;-73
2023/05/07 08:17:03;;;;;;;27.35;20.08;;;15.60;99.90;;;;;;5289848;28;20023;-73
2023/05/07 08:19:34;;;;;;;26.08;19.20;;;15.70;99.90;;;;;;5289518;28;20032;-74
2023/05/07 08:22:05;;;;;;;27.60;20.48;;;15.60;99.90;;;;;;5289219;28;20495;-73
2023/05/07 08:24:36;;;;;;;27.00;19.30;;;15.70;99.90;;;;;;5289261;28;20030;-72
2023/05/07 08:27:07;;;;;;;23.58;19.65;;;15.90;99.90;;;;;;5289251;28;20055;-72
2023/05/07 08:29:38;;;;;;;30.02;20.40;;;15.80;99.90;;;;;;5289265;28;20420;-72
2023/05/07 08:32:09;;;;;;;26.77;21.40;;;15.90;99.90;;;;;;5289244;28;20130;-74
2023/05/07 08:34:40;;;;;;;24.45;19.38;;;16.00;99.90;;;;;;5288954;28;20055;-74
2023/05/07 08:37:11;;;;;;;24.00;18.85;;;16.30;99.90;;;;;;5289294;28;20504;-73
2023/05/07 08:39:42;;;;;;;23.15;19.98;;;16.20;99.90;;;;;;5289080;28;20073;-73
2023/05/07 08:42:16;;;;;;;26.73;22.58;;;16.30;99.90;;;;;;5288792;28;20031;-73
2023/05/07 08:44:48;;;;;;;24.42;20.33;;;16.40;99.90;;;;;;5288915;28;20019;-73
2023/05/07 08:47:20;;;;;;;25.85;21.88;;;16.20;99.90;;;;;;5286974;28;20109;-74
2023/05/07 08:49:51;;;;;;;25.98;21.63;;;16.30;99.90;;;;;;5287588;28;20039;-73
2023/05/07 08:52:22;;;;;;;27.63;22.80;;;16.20;99.90;;;;;;5288537;28;20040;-73
2023/05/07 08:54:52;;;;;;;23.23;20.55;;;16.30;99.90;;;;;;5288724;28;20488;-74
2023/05/07 08:57:24;;;;;;;25.73;21.23;;;16.50;99.90;;;;;;5288736;28;20090;-74
2023/05/07 08:59:55;;;;;;;23.73;18.33;;;16.50;99.90;;;;;;5288794;28;20028;-74
2023/05/07 09:02:26;;;;;;;20.92;18.67;;;16.50;99.90;;;;;;5288893;28;20031;-73
2023/05/07 09:04:57;;;;;;;25.88;19.67;;;16.70;99.90;;;;;;5287773;28;20432;-73
2023/05/07 09:07:28;;;;;;;22.67;18.42;;;16.80;99.90;;;;;;5288750;28;20034;-73
2023/05/07 09:10:02;;;;;;;25.27;19.83;;;16.50;99.90;;;;;;5289104;28;20028;-72
2023/05/07 09:12:35;;;;;;;27.13;19.48;;;16.70;99.90;;;;;;5288597;28;20035;-72
2023/05/07 09:15:06;;;;;;;25.45;18.30;;;16.80;99.90;;;;;;5288856;28;20036;-73
2023/05/07 09:17:37;;;;;;;19.35;16.83;;;17.00;99.90;;;;;;5287357;28;20474;-73
2023/05/07 09:20:09;;;;;;;22.88;17.92;;;16.50;99.90;;;;;;5288589;28;20027;-73
2023/05/07 09:22:40;;;;;;;22.88;18.48;;;16.40;99.90;;;;;;5288429;28;20080;-73
2023/05/07 09:25:11;;;;;;;29.58;18.80;;;16.60;99.90;;;;;;5288566;28;20032;-73
2023/05/07 09:27:42;;;;;;;24.02;19.00;;;17.00;99.90;;;;;;5288763;28;20018;-74
2023/05/07 09:30:13;;;;;;;21.20;19.00;;;16.80;99.90;;;;;;5288744;28;20466;-74
2023/05/07 09:32:44;;;;;;;21.92;18.75;;;16.80;99.90;;;;;;5287911;28;20070;-74
2023/05/07 09:35:16;;;;;;;22.85;18.25;;;16.90;99.90;;;;;;5288748;28;20047;-74
2023/05/07 09:37:47;;;;;;;23.45;17.33;;;17.00;99.90;;;;;;5288662;28;20478;-73
2023/05/07 09:40:22;;;;;;;27.90;17.98;;;16.90;99.90;;;;;;5288508;28;20030;-73
2023/05/07 09:42:54;;;;;;;29.30;17.15;;;16.60;99.90;;;;;;5288390;28;20028;-74
2023/05/07 09:45:29;;;;;;;25.30;17.85;;;16.60;99.90;;;;;;5288321;28;20024;-74
2023/05/07 09:48:04;;;;;;;22.35;17.27;;;16.40;99.90;;;;;;5288329;28;20028;-74
2023/05/07 09:50:48;;;;;;;25.20;18.70;;;16.40;99.90;;;;;;5287084;28;20031;-74
2023/05/07 09:53:19;;;;;;;24.00;19.10;;;16.20;99.90;;;;;;5288252;28;20030;-72
2023/05/07 09:55:51;;;;;;;24.45;18.80;;;16.10;99.90;;;;;;5288218;28;20080;-73
2023/05/07 09:58:23;;;;;;;28.95;20.75;;;16.20;99.90;;;;;;5290275;28;20054;-72
2023/05/07 10:00:55;;;;;;;24.13;19.52;;;16.40;99.90;;;;;;5292345;28;20525;-73
2023/05/07 10:03:29;;;;;;;23.27;18.52;;;16.70;99.90;;;;;;5291962;28;20382;-74
2023/05/07 10:06:00;;;;;;;26.15;18.98;;;16.60;99.90;;;;;;5285512;28;20027;-75
2023/05/07 10:08:31;;;;;;;19.80;17.38;;;17.00;99.90;;;;;;5272929;28;20028;-74
2023/05/07 10:11:04;;;;;;;22.15;16.77;;;17.20;99.90;;;;;;5270715;28;20028;-72
2023/05/07 10:13:37;;;;;;;21.45;16.75;;;17.00;99.90;;;;;;5270690;28;20379;-73
2023/05/07 10:16:08;;;;;;;19.05;15.27;;;17.10;99.90;;;;;;5270667;28;20502;-75
2023/05/07 10:18:40;;;;;;;21.98;15.43;;;17.00;99.90;;;;;;5270688;28;20093;-74
2023/05/07 10:21:19;;;;;;;23.52;15.98;;;17.30;99.90;;;;;;5270520;28;20048;-74
2023/05/07 10:23:59;;;;;;;19.80;16.42;;;17.40;99.90;;;;;;5283968;28;20053;-75
2023/05/07 10:26:32;;;;;;;21.08;16.80;;;17.40;99.90;;;;;;5291377;28;20019;-73
2023/05/07 10:29:21;;;;;;;26.42;18.38;;;17.20;99.90;;;;;;5274456;28;20032;-73
2023/05/07 10:32:19;;;;;;;21.70;17.50;;;17.30;99.90;;;;;;5270400;28;20487;-73
2023/05/07 10:34:55;;;;;;;19.77;16.88;;;17.40;99.90;;;;;;5270149;28;20020;-73
2023/05/07 10:37:26;;;;;;;26.23;17.60;;;17.40;99.90;;;;;;5270214;28;20028;-73
2023/05/07 10:39:57;;;;;;;20.67;17.60;;;17.70;99.90;;;;;;5270315;28;20019;-73
2023/05/07 10:42:28;;;;;;;28.33;20.20;;;17.80;99.90;;;;;;5289767;28;20428;-73
2023/05/07 10:45:13;;;;;;;28.58;19.30;;;18.20;99.90;;;;;;5291620;28;20028;-73
2023/05/07 10:48:05;;;;;;;22.88;17.75;;;18.00;99.90;;;;;;5290918;28;20024;-74
2023/05/07 10:50:37;;;;;;;24.35;18.83;;;18.20;99.90;;;;;;5289641;28;20398;-73
2023/05/07 10:53:28;;;;;;;23.80;18.95;;;18.00;99.90;;;;;;5291041;28;20035;-74
2023/05/07 10:56:17;;;;;;;23.00;20.88;;;18.40;99.90;;;;;;5290901;28;20016;-72
2023/05/07 10:58:47;;;;;;;23.63;21.20;;;18.20;99.90;;;;;;5289721;28;20035;-73
2023/05/07 11:01:49;;;;;;;26.13;23.42;;;18.50;99.90;;;;;;5278981;28;20024;-73
2023/05/07 11:04:31;;;;;;;25.05;20.20;;;18.10;99.90;;;;;;5267736;28;20458;-74
2023/05/07 11:07:19;;;;;;;25.02;22.02;;;18.50;99.90;;;;;;5269754;28;20035;-75
2023/05/07 11:09:53;;;;;;;24.60;20.73;;;18.20;99.90;;;;;;5269541;28;20704;-74
2023/05/07 11:12:36;;;;;;;20.42;18.60;;;18.40;99.90;;;;;;5269769;28;20035;-73
2023/05/07 11:15:09;;;;;;;21.92;19.75;;;18.00;99.90;;;;;;5268300;28;20028;-73
2023/05/07 11:17:54;;;;;;;22.40;18.02;;;18.20;99.90;;;;;;5275977;28;20236;-73
2023/05/07 11:20:52;;;;;;;21.42;18.02;;;18.10;99.90;;;;;;5285692;28;20058;-75
2023/05/07 11:23:37;;;;;;;21.50;18.25;;;18.20;99.90;;;;;;5272404;28;20055;-74
2023/05/07 11:26:09;;;;;;;24.90;18.05;;;18.60;99.90;;;;;;5280448;28;20036;-73
2023/05/07 11:28:42;;;;;;;21.50;19.23;;;18.50;99.90;;;;;;5269106;28;20375;-74
2023/05/07 11:31:13;;;;;;;20.70;17.48;;;18.30;99.90;;;;;;5268957;28;20043;-74
2023/05/07 11:33:44;;;;;;;20.13;17.35;;;18.20;99.90;;;;;;5269087;28;20032;-74
2023/05/07 11:36:15;;;;;;;20.73;17.15;;;18.40;99.90;;;;;;5282956;28;20020;-74
2023/05/07 11:38:46;;;;;;;21.80;17.40;;;18.40;99.90;;;;;;5290226;28;20024;-73
2023/05/07 11:41:19;;;;;;;23.80;17.35;;;18.60;99.90;;;;;;5277658;28;20028;-73
2023/05/07 11:43:58;;;;;;;22.23;17.65;;;18.80;99.90;;;;;;5269352;28;20426;-73
2023/05/07 11:46:29;;;;;;;18.50;16.52;;;18.90;99.90;;;;;;5269264;28;20031;-74
2023/05/07 11:49:01;;;;;;;21.83;17.08;;;18.80;99.90;;;;;;5268823;28;20390;-75
2023/05/07 11:51:32;;;;;;;21.50;19.25;;;18.20;99.90;;;;;;5287699;28;20039;-73
2023/05/07 11:54:11;;;;;;;22.83;16.58;;;18.60;99.90;;;;;;5289729;28;20020;-74
2023/05/07 11:56:41;;;;;;;19.92;17.80;;;18.30;99.90;;;;;;5289991;28;20470;-73
2023/05/07 11:59:16;;;;;;;23.02;18.63;;;18.40;99.90;;;;;;5288281;28;20023;-73
2023/05/07 12:01:47;;;;;;;20.90;18.88;;;18.60;99.90;;;;;;5289720;28;20031;-73
2023/05/07 12:04:21;;;;;;;21.58;18.17;;;18.80;99.90;;;;;;5289472;28;20659;-73
2023/05/07 12:06:55;;;;;;;23.67;19.92;;;18.60;99.90;;;;;;5289631;28;20023;-74
2023/05/07 12:09:26;;;;;;;23.48;19.00;;;18.70;99.90;;;;;;5289178;28;20406;-73
2023/05/07 12:11:57;;;;;;;20.58;18.42;;;18.90;99.90;;;;;;5289317;28;20038;-72
2023/05/07 12:14:29;;;;;;;23.83;19.92;;;18.90;99.90;;;;;;5289444;28;20024;-73
2023/05/07 12:17:05;;;;;;;25.70;20.50;;;18.80;99.90;;;;;;5289485;28;20114;-74
2023/05/07 12:19:37;;;;;;;23.02;20.65;;;18.90;99.90;;;;;;5289416;28;20103;-74
2023/05/07 12:22:09;;;;;;;22.98;20.67;;;18.70;99.90;;;;;;5288583;28;20055;-73
2023/05/07 12:24:46;;;;;;;23.35;21.00;;;18.60;99.90;;;;;;5289181;28;20062;-75
2023/05/07 12:27:17;;;;;;;24.02;21.65;;;18.80;99.90;;;;;;5289266;28;20032;-74
2023/05/07 12:29:50;;;;;;;24.95;21.90;;;18.50;99.90;;;;;;5289286;28;20094;-74
2023/05/07 12:32:22;;;;;;;23.63;20.98;;;18.40;99.90;;;;;;5288993;28;20054;-74
2023/05/07 12:34:52;;;;;;;22.95;20.60;;;18.40;99.90;;;;;;5289331;28;20470;-73
2023/05/07 12:37:25;;;;;;;22.20;19.90;;;18.00;99.90;;;;;;5289470;28;20033;-73
2023/05/07 12:40:10;;;;;;;24.33;19.75;;;18.20;99.90;;;;;;5289553;28;20020;-72
2023/05/07 12:42:42;;;;;;;19.65;17.67;;;18.40;99.90;;;;;;5289133;28;20019;-73
2023/05/07 12:45:15;;;;;;;22.92;18.92;;;18.40;99.90;;;;;;5289170;28;20420;-74
2023/05/07 12:47:47;;;;;;;23.30;21.00;;;18.60;99.90;;;;;;5288961;28;20031;-72
2023/05/07 12:50:18;;;;;;;21.33;18.55;;;18.60;99.90;;;;;;5287623;28;20436;-74
2023/05/07 12:52:49;;;;;;;21.88;17.00;;;18.70;99.90;;;;;;5288622;28;20126;-74
2023/05/07 12:55:20;;;;;;;21.92;19.75;;;18.70;99.90;;;;;;5286473;28;20120;-74
2023/05/07 12:57:52;;;;;;;22.10;20.05;;;18.70;99.90;;;;;;5296832;27;20031;-73
2023/05/07 13:00:36;;;;;;;24.25;20.08;;;18.80;99.90;;;;;;5309665;27;20019;-73
2023/05/07 13:03:07;;;;;;;21.67;19.73;;;18.60;99.90;;;;;;5309928;27;20485;-73
2023/05/07 13:05:39;;;;;;;23.48;21.27;;;18.60;99.90;;;;;;5309738;27;20028;-74
2023/05/07 13:08:10;;;;;;;23.38;20.60;;;18.70;99.90;;;;;;5309743;27;20033;-74
2023/05/07 13:10:41;;;;;;;23.90;21.42;;;18.50;99.90;;;;;;5309827;27;20023;-74